KOGA/OGA METAR and TAF weather

Enter ICAO airport designator
Station Type Date Time Source
KOGA METAR 2022/07/01 01:35 UTC NOAA

KOGA 010135Z AUTO 05006KT 10SM CLR 29/11 A3001 RMK AO2 T02900113


Station Type Date Time Source
KOGA Decoded METAR 2022/07/01 01:35 UTC NOAA

Ogallala, Searle Field Airport, NE, United States (KOGA) 41-07-11N 101-46-08W
Jun 30, 2022 - 09:35 PM EDT / 2022.07.01 0135 UTC
Wind: from the NE (050 degrees) at 7 MPH (6 KT):0
Visibility: 10 mile(s):0
Sky conditions: clear
Temperature: 84.2 F (29.0 C)
Dew Point: 52.3 F (11.3 C)
Relative Humidity: 33%
Pressure (altimeter): 30.01 in. Hg (1016 hPa)
ob: KOGA 010135Z AUTO 05006KT 10SM CLR 29/11 A3001 RMK AO2 T02900113
cycle: 1

Station Type Date Time Source
KOGA TAF UTC NOAA

Error!

Example: see airport list